createdAt,value
2019-04-11T00:01:33.934Z,84.20
2019-04-11T00:03:53.517Z,84.50
2019-04-11T00:06:23.527Z,84.70
2019-04-11T00:08:52.909Z,85.30
2019-04-11T00:11:23.900Z,85.90
2019-04-11T00:13:53.622Z,86.30
2019-04-11T00:16:23.459Z,86.60
2019-04-11T00:18:54.484Z,86.40
2019-04-11T00:21:25.072Z,87.30
2019-04-11T00:23:54.565Z,86.40
2019-04-11T00:26:24.461Z,86.80
2019-04-11T00:28:54.234Z,87.10
2019-04-11T00:31:23.697Z,87.70
2019-04-11T00:33:54.184Z,88.30
2019-04-11T00:36:24.490Z,89.10
2019-04-11T00:38:53.799Z,90.00
2019-04-11T00:41:23.932Z,90.00
2019-04-11T00:43:54.631Z,90.30
2019-04-11T00:46:24.573Z,90.40
2019-04-11T00:48:54.466Z,90.90
2019-04-11T00:51:25.893Z,90.70
2019-04-11T00:53:58.338Z,90.40
2019-04-11T00:56:28.393Z,90.10
2019-04-11T00:58:58.961Z,90.60
2019-04-11T01:01:28.277Z,90.70
2019-04-11T01:03:57.576Z,90.50
2019-04-11T01:06:27.908Z,90.40
2019-04-11T01:08:58.433Z,90.30
2019-04-11T01:11:27.912Z,90.50
2019-04-11T01:13:57.458Z,90.60
2019-04-11T01:16:38.802Z,91.30
2019-04-11T01:19:08.772Z,92.20
2019-04-11T01:21:38.165Z,93.30
2019-04-11T01:24:07.473Z,93.90
2019-04-11T01:26:37.273Z,94.70
2019-04-11T01:29:07.169Z,95.30
2019-04-11T01:31:38.412Z,95.80
2019-04-11T01:34:08.596Z,96.30
2019-04-11T01:36:39.431Z,96.90
2019-04-11T01:39:23.322Z,97.10
2019-04-11T01:41:53.678Z,97.30
2019-04-11T01:44:23.055Z,97.60
2019-04-11T01:46:52.353Z,97.90
2019-04-11T01:49:24.041Z,98.00
2019-04-11T01:51:53.957Z,98.10
2019-04-11T01:54:24.309Z,98.00
2019-04-11T01:56:53.749Z,97.70
2019-04-11T01:59:23.603Z,97.50
2019-04-11T02:02:01.227Z,97.30
2019-04-11T02:04:38.529Z,97.40
2019-04-11T02:07:08.204Z,97.50
2019-04-11T02:09:38.481Z,97.90
2019-04-11T02:12:07.822Z,97.70
2019-04-11T02:14:38.233Z,98.00
2019-04-11T02:17:08.599Z,97.70
2019-04-11T02:19:38.457Z,98.00
2019-04-11T02:22:13.665Z,98.20
2019-04-11T02:24:52.263Z,98.40
2019-04-11T02:27:24.779Z,98.60
2019-04-11T02:29:55.147Z,98.60
2019-04-11T02:32:28.702Z,98.70
2019-04-11T02:34:59.329Z,98.70
2019-04-11T02:37:29.377Z,98.60
2019-04-11T02:40:00.156Z,98.80
2019-04-11T02:42:30.747Z,99.00
2019-04-11T02:45:18.102Z,99.00
2019-04-11T02:47:35.225Z,98.80
2019-04-11T02:50:05.813Z,98.70
2019-04-11T02:52:37.638Z,98.70
2019-04-11T02:55:10.127Z,98.70
2019-04-11T02:57:40.644Z,98.60
2019-04-11T03:00:11.169Z,98.70
2019-04-11T03:02:44.206Z,98.80
2019-04-11T03:05:13.697Z,98.90
2019-04-11T03:07:43.341Z,99.10
2019-04-11T03:10:14.177Z,99.20
2019-04-11T03:12:45.981Z,99.30
2019-04-11T03:15:35.954Z,99.30
2019-04-11T03:17:49.474Z,99.40
2019-04-11T03:20:26.523Z,99.50
2019-04-11T03:22:56.929Z,99.50
2019-04-11T03:25:22.514Z,99.70
2019-04-11T03:27:54.039Z,99.80
2019-04-11T03:30:38.095Z,99.90
2019-04-11T03:38:24.703Z,99.90
2019-04-11T03:40:48.090Z,99.90
2019-04-11T03:43:16.408Z,99.80
2019-04-11T03:45:52.474Z,99.80
2019-04-11T03:48:23.551Z,99.80
2019-04-11T03:50:39.493Z,99.80
2019-04-11T03:53:11.413Z,99.60
2019-04-11T03:55:45.398Z,99.70
2019-04-11T03:58:15.587Z,99.50
2019-04-11T04:00:49.729Z,99.50
2019-04-11T04:03:20.089Z,99.40
2019-04-11T04:05:50.648Z,99.40
2019-04-11T04:08:20.420Z,99.30
2019-04-11T04:10:52.121Z,99.30
2019-04-11T04:13:23.223Z,99.10
2019-04-11T04:16:12.126Z,99.20
2019-04-11T04:18:40.409Z,99.30
2019-04-11T04:21:13.309Z,99.30
2019-04-11T04:23:45.471Z,99.50
2019-04-11T04:26:16.863Z,99.60
2019-04-11T04:28:47.599Z,99.70
2019-04-11T04:31:18.449Z,99.80
2019-04-11T04:33:49.385Z,99.80
2019-04-11T04:36:18.823Z,99.90
2019-04-11T04:38:48.755Z,99.90
2019-04-11T04:41:32.518Z,99.70
2019-04-11T04:43:52.799Z,99.90
2019-04-11T04:46:39.950Z,99.90
2019-04-11T04:48:55.985Z,99.90
2019-04-11T04:51:26.795Z,99.90
2019-04-11T04:53:57.873Z,99.90
2019-04-11T04:56:31.804Z,99.90
2019-04-11T04:59:19.606Z,99.90
2019-04-11T05:01:50.841Z,99.80
2019-04-11T05:04:21.238Z,99.70
2019-04-11T05:06:52.281Z,99.60
2019-04-11T05:09:21.550Z,99.70
2019-04-11T05:11:50.931Z,99.60
2019-04-11T05:14:21.008Z,99.50
2019-04-11T05:16:50.531Z,99.50
2019-04-11T05:19:21.969Z,99.40
2019-04-11T05:21:52.027Z,99.00
2019-04-11T05:24:21.461Z,98.80
2019-04-11T05:26:50.761Z,98.70
2019-04-11T05:29:21.604Z,98.70
2019-04-11T05:31:51.132Z,98.80
2019-04-11T05:34:20.620Z,98.70
2019-04-11T05:36:50.996Z,98.70
2019-04-11T05:39:20.300Z,98.90
2019-04-11T05:41:49.946Z,98.70
2019-04-11T05:44:20.935Z,98.60
2019-04-11T05:46:56.258Z,98.50
2019-04-11T05:49:36.657Z,98.50
2019-04-11T05:52:08.141Z,98.40
2019-04-11T05:54:48.881Z,98.50
2019-04-11T05:57:21.279Z,98.50
2019-04-11T05:59:49.926Z,98.40
2019-04-11T06:02:21.397Z,98.20
2019-04-11T06:04:56.218Z,97.60
2019-04-11T06:07:35.007Z,97.60
2019-04-11T06:10:11.205Z,97.50
2019-04-11T06:12:45.522Z,97.10
2019-04-11T06:15:16.673Z,97.10
2019-04-11T06:17:48.206Z,96.90
2019-04-11T06:20:24.722Z,96.20
2019-04-11T06:23:00.626Z,96.20
2019-04-11T06:25:33.285Z,96.20
2019-04-11T06:28:07.333Z,96.20
2019-04-11T06:30:47.272Z,95.60
2019-04-11T06:33:22.706Z,95.10
2019-04-11T06:36:02.629Z,94.50
2019-04-11T06:38:34.380Z,94.20
2019-04-11T06:41:20.489Z,93.90
2019-04-11T06:44:00.610Z,93.10
2019-04-11T06:46:35.423Z,92.30
2019-04-11T06:49:07.043Z,91.10
2019-04-11T06:51:37.986Z,90.00
2019-04-11T06:54:25.248Z,88.50
2019-04-11T06:56:54.661Z,87.00
2019-04-11T06:59:26.108Z,86.40
2019-04-11T07:02:08.065Z,84.40
2019-04-11T07:04:34.040Z,78.60
2019-04-11T07:07:05.002Z,74.20
2019-04-11T07:09:39.449Z,76.00
2019-04-11T07:12:13.669Z,70.80
2019-04-11T07:14:47.603Z,70.70
2019-04-11T07:17:37.090Z,67.20
2019-04-11T07:20:25.025Z,68.00
2019-04-11T07:23:13.516Z,64.30
2019-04-11T07:26:02.448Z,63.10
2019-04-11T07:28:43.942Z,62.10
2019-04-11T07:31:30.385Z,60.90
2019-04-11T07:34:08.768Z,57.70
2019-04-11T07:36:57.921Z,59.40
2019-04-11T07:39:31.521Z,58.90
2019-04-11T07:42:18.219Z,57.90
2019-04-11T07:44:55.406Z,57.60
2019-04-11T07:47:43.861Z,57.10
2019-04-11T07:50:15.674Z,57.30
2019-04-11T07:52:52.160Z,56.90
2019-04-11T07:55:23.152Z,54.40
2019-04-11T07:57:54.659Z,52.80
2019-04-11T08:00:38.634Z,52.00
2019-04-11T08:03:06.255Z,52.50
2019-04-11T08:05:41.206Z,52.80
2019-04-11T08:08:21.522Z,51.60
2019-04-11T08:10:52.665Z,53.30
2019-04-11T08:13:23.670Z,50.40
2019-04-11T08:16:10.913Z,50.00
2019-04-11T08:18:45.347Z,47.60
2019-04-11T08:21:35.690Z,47.60
2019-04-11T08:24:10.012Z,46.90
2019-04-11T08:26:42.197Z,45.40
2019-04-11T08:29:15.553Z,44.40
2019-04-11T08:32:02.659Z,46.30
2019-04-11T08:34:33.790Z,45.10
2019-04-11T08:37:21.214Z,45.80
2019-04-11T08:39:51.373Z,44.20
2019-04-11T08:42:25.382Z,45.00
2019-04-11T08:44:54.885Z,43.90
2019-04-11T08:47:24.530Z,43.60
2019-04-11T08:49:54.148Z,44.80
2019-04-11T08:52:31.931Z,43.80
2019-04-11T08:55:04.137Z,44.50
2019-04-11T08:57:38.163Z,42.40
2019-04-11T09:00:10.295Z,41.80
2019-04-11T09:02:40.934Z,41.70
2019-04-11T09:05:20.327Z,42.70
2019-04-11T09:07:54.505Z,41.60
2019-04-11T09:10:42.372Z,41.60
2019-04-11T09:13:17.354Z,43.60
2019-04-11T09:16:05.532Z,42.50
2019-04-11T09:18:36.582Z,41.80
2019-04-11T09:21:07.854Z,40.50
2019-04-11T09:23:39.265Z,40.30
2019-04-11T09:26:27.635Z,40.80
2019-04-11T09:28:57.696Z,39.90
2019-04-11T09:31:45.666Z,40.20
2019-04-11T09:34:30.050Z,38.50
2019-04-11T09:37:01.272Z,39.70
2019-04-11T09:39:33.566Z,40.60
2019-04-11T09:42:11.578Z,39.70
2019-04-11T09:44:49.183Z,39.00
2019-04-11T09:47:38.375Z,39.60
2019-04-11T09:50:09.798Z,42.80
2019-04-11T09:52:40.997Z,42.80
2019-04-11T09:55:12.897Z,42.00
2019-04-11T09:57:44.153Z,42.90
2019-04-11T10:00:16.437Z,41.40
2019-04-11T10:02:54.610Z,41.50
2019-04-11T10:05:26.511Z,43.10
2019-04-11T10:08:14.837Z,44.00
2019-04-11T10:11:03.726Z,41.70
2019-04-11T10:13:53.292Z,41.30
2019-04-11T10:16:26.263Z,43.90
2019-04-11T10:19:03.436Z,45.10
2019-04-11T10:21:34.538Z,45.70
2019-04-11T10:24:20.629Z,45.90
2019-04-11T10:26:52.114Z,46.40
2019-04-11T10:29:39.827Z,45.80
2019-04-11T10:32:10.832Z,45.00
2019-04-11T10:34:57.637Z,46.40
2019-04-11T10:37:27.597Z,47.50
2019-04-11T10:40:10.636Z,47.40
2019-04-11T10:42:42.474Z,46.70
2019-04-11T10:45:16.305Z,47.80
2019-04-11T10:47:45.686Z,47.40
2019-04-11T10:50:34.042Z,47.30
2019-04-11T10:53:03.666Z,46.70
2019-04-11T10:55:51.732Z,47.50
2019-04-11T10:58:22.905Z,46.00
2019-04-11T11:00:57.658Z,46.10
2019-04-11T11:03:47.414Z,45.10
2019-04-11T11:06:27.648Z,45.00
2019-04-11T11:09:01.810Z,43.10
2019-04-11T11:11:37.341Z,41.00
2019-04-11T11:14:22.724Z,42.00
2019-04-11T11:16:56.842Z,43.10
2019-04-11T11:19:46.638Z,42.40
2019-04-11T11:22:02.454Z,41.90
2019-04-11T11:24:40.625Z,39.80
2019-04-11T11:27:10.395Z,40.80
2019-04-11T11:29:43.073Z,41.40
2019-04-11T11:32:14.265Z,38.60
2019-04-11T11:34:49.277Z,40.00
2019-04-11T11:37:33.361Z,40.80
2019-04-11T11:40:21.503Z,40.10
2019-04-11T11:43:08.880Z,39.90
2019-04-11T11:45:55.053Z,37.60
2019-04-11T11:48:27.986Z,36.60
2019-04-11T11:50:59.241Z,34.60
2019-04-11T11:53:42.831Z,35.20
2019-04-11T11:56:13.758Z,35.10
2019-04-11T11:58:51.877Z,34.30
2019-04-11T12:01:21.897Z,35.00
2019-04-11T12:04:08.732Z,32.50
2019-04-11T12:06:39.306Z,33.10
2019-04-11T12:09:25.253Z,32.70
2019-04-11T12:11:59.384Z,31.70
2019-04-11T12:14:37.237Z,30.60
2019-04-11T12:17:11.665Z,32.60
2019-04-11T12:19:52.298Z,31.60
2019-04-11T12:22:14.105Z,31.50
2019-04-11T12:24:56.853Z,31.40
2019-04-11T12:27:28.939Z,30.40
2019-04-11T12:30:03.046Z,32.00
2019-04-11T12:32:36.729Z,31.50
2019-04-11T12:35:17.929Z,30.90
2019-04-11T12:38:00.803Z,31.10
2019-04-11T12:40:48.224Z,31.00
2019-04-11T12:43:17.808Z,31.60
2019-04-11T12:45:51.805Z,31.70
2019-04-11T12:48:22.769Z,33.80
2019-04-11T12:51:00.444Z,37.00
2019-04-11T12:53:29.783Z,36.30
2019-04-11T12:56:09.746Z,35.60
2019-04-11T12:58:43.414Z,36.40
2019-04-11T13:01:27.245Z,37.10
2019-04-11T13:04:17.089Z,37.90
2019-04-11T13:07:00.230Z,35.80
2019-04-11T13:09:31.209Z,34.70
2019-04-11T13:12:02.162Z,33.10
2019-04-11T13:14:38.841Z,33.10
2019-04-11T13:17:12.686Z,32.70
2019-04-11T13:19:46.985Z,34.80
2019-04-11T13:22:17.937Z,36.10
2019-04-11T13:25:05.231Z,36.70
2019-04-11T13:27:36.179Z,35.80
2019-04-11T13:30:25.776Z,35.40
2019-04-11T13:32:56.554Z,37.70
2019-04-11T13:35:46.564Z,40.10
2019-04-11T13:38:20.432Z,39.20
2019-04-11T13:41:08.021Z,39.00
2019-04-11T13:43:38.979Z,36.30
2019-04-11T13:46:22.311Z,40.00
2019-04-11T13:48:53.260Z,41.70
2019-04-11T13:51:24.856Z,38.80
2019-04-11T13:54:12.269Z,35.00
2019-04-11T13:56:45.143Z,35.30
2019-04-11T13:59:15.874Z,36.00
2019-04-11T14:01:46.845Z,38.20
2019-04-11T14:04:20.553Z,40.50
2019-04-11T14:06:52.101Z,43.20
2019-04-11T14:09:32.009Z,42.10
2019-04-11T14:12:04.871Z,37.70
2019-04-11T14:14:32.932Z,35.20
2019-04-11T14:17:17.474Z,34.20
2019-04-11T14:19:49.757Z,35.30
2019-04-11T14:22:28.787Z,34.80
2019-04-11T14:24:57.457Z,34.80
2019-04-11T14:27:30.721Z,35.30
2019-04-11T14:30:13.736Z,36.60
2019-04-11T14:32:51.791Z,33.30
2019-04-11T14:35:39.834Z,35.10
2019-04-11T14:38:11.638Z,38.80
2019-04-11T14:41:01.242Z,40.70
2019-04-11T14:43:36.298Z,43.00
2019-04-11T14:46:13.450Z,44.50
2019-04-11T14:48:44.341Z,46.40
2019-04-11T14:51:16.681Z,44.80
2019-04-11T14:53:55.885Z,42.90
2019-04-11T14:56:27.243Z,40.70
2019-04-11T14:59:16.578Z,42.50
2019-04-11T15:01:56.505Z,45.10
2019-04-11T15:04:44.686Z,48.00
2019-04-11T15:07:15.703Z,46.60
2019-04-11T15:10:04.359Z,47.40
2019-04-11T15:12:35.305Z,48.30
2019-04-11T15:15:24.378Z,47.60
2019-04-11T15:17:55.900Z,49.00
2019-04-11T15:20:54.381Z,50.70
2019-04-11T15:23:19.258Z,50.70
2019-04-11T15:26:08.649Z,51.00
2019-04-11T15:28:43.970Z,50.60
2019-04-11T15:31:39.554Z,51.20
2019-04-11T15:34:09.841Z,48.70
2019-04-11T15:36:40.829Z,43.90
2019-04-11T15:39:28.342Z,40.90
2019-04-11T15:42:02.406Z,39.20
2019-04-11T15:44:34.249Z,38.20
2019-04-11T15:47:08.230Z,37.70
2019-04-11T15:49:47.842Z,38.60
2019-04-11T15:52:18.309Z,40.00
2019-04-11T15:54:58.224Z,42.60
2019-04-11T15:57:30.751Z,45.80
2019-04-11T16:00:16.973Z,47.60
2019-04-11T16:02:47.924Z,48.30
2019-04-11T16:05:36.646Z,49.90
2019-04-11T16:08:24.485Z,49.90
2019-04-11T16:10:58.121Z,47.70
2019-04-11T16:13:32.901Z,49.50
2019-04-11T16:16:07.029Z,49.90
2019-04-11T16:18:54.625Z,50.40
2019-04-11T16:21:28.565Z,50.00
2019-04-11T16:24:08.714Z,51.00
2019-04-11T16:26:56.121Z,50.70
2019-04-11T16:29:27.993Z,50.60
2019-04-11T16:31:58.934Z,50.90
2019-04-11T16:34:47.632Z,52.20
2019-04-11T16:37:06.890Z,52.00
2019-04-11T16:39:55.189Z,52.40
2019-04-11T16:42:27.533Z,52.80
2019-04-11T16:45:01.720Z,53.60
2019-04-11T16:47:41.660Z,54.30
2019-04-11T16:50:11.497Z,55.00
2019-04-11T16:52:40.819Z,55.90
2019-04-11T16:55:10.654Z,55.80
2019-04-11T16:57:44.019Z,56.90
2019-04-11T17:00:12.709Z,56.40
2019-04-11T17:02:42.101Z,57.90
2019-04-11T17:05:11.647Z,58.00
2019-04-11T17:08:00.804Z,58.90
2019-04-11T17:10:48.069Z,58.90
2019-04-11T17:13:17.549Z,59.60
2019-04-11T17:15:46.854Z,60.00
2019-04-11T17:18:18.968Z,60.50
2019-04-11T17:20:48.271Z,60.70
2019-04-11T17:23:17.849Z,61.80
2019-04-11T17:25:52.459Z,62.40
2019-04-11T17:28:18.230Z,63.10
2019-04-11T17:30:47.701Z,63.30
2019-04-11T17:33:17.166Z,63.60
2019-04-11T17:35:46.575Z,63.20
2019-04-11T17:38:16.809Z,63.50
2019-04-11T17:40:46.115Z,63.60
2019-04-11T17:43:15.405Z,63.30
2019-04-11T17:45:44.724Z,63.30
2019-04-11T17:48:14.021Z,64.20
2019-04-11T17:50:43.387Z,64.30
2019-04-11T17:53:12.751Z,63.80
2019-04-11T17:55:42.128Z,63.10
2019-04-11T17:58:11.430Z,63.80
2019-04-11T18:00:45.313Z,63.50
2019-04-11T18:03:15.797Z,64.60
2019-04-11T18:05:47.030Z,64.80
2019-04-11T18:08:19.781Z,65.20
2019-04-11T18:10:48.105Z,65.90
2019-04-11T18:13:17.405Z,65.50
2019-04-11T18:15:46.776Z,66.00
2019-04-11T18:18:16.079Z,66.40
2019-04-11T18:20:45.433Z,66.40
2019-04-11T18:23:14.815Z,66.80
2019-04-11T18:25:44.120Z,67.60
2019-04-11T18:28:13.417Z,67.50
2019-04-11T18:30:43.929Z,68.00
2019-04-11T18:33:13.775Z,67.80
2019-04-11T18:35:43.069Z,66.70
2019-04-11T18:38:12.379Z,67.20
2019-04-11T18:40:41.684Z,67.50
2019-04-11T18:43:10.973Z,68.00
2019-04-11T18:45:40.295Z,68.60
2019-04-11T18:48:09.590Z,69.10
2019-04-11T18:50:38.911Z,68.20
2019-04-11T18:53:08.281Z,69.20
2019-04-11T18:55:37.579Z,68.40
2019-04-11T18:58:06.908Z,69.50
2019-04-11T19:00:38.380Z,69.40
2019-04-11T19:03:08.121Z,69.00
2019-04-11T19:05:38.410Z,68.60
2019-04-11T19:08:07.709Z,68.50
2019-04-11T19:10:37.138Z,69.00
2019-04-11T19:13:06.488Z,67.00
2019-04-11T19:15:35.797Z,67.00
2019-04-11T19:18:06.914Z,66.80
2019-04-11T19:20:36.453Z,67.10
2019-04-11T19:23:07.912Z,66.80
2019-04-11T19:25:36.881Z,66.70
2019-04-11T19:28:06.190Z,66.70
2019-04-11T19:30:35.549Z,67.60
2019-04-11T19:33:05.041Z,67.50
2019-04-11T19:35:34.454Z,67.90
2019-04-11T19:38:04.257Z,68.40
2019-04-11T19:40:33.545Z,67.10
2019-04-11T19:43:02.850Z,66.90
2019-04-11T19:45:33.221Z,67.10
2019-04-11T19:48:02.525Z,67.50
2019-04-11T19:50:31.833Z,67.10
2019-04-11T19:53:02.997Z,67.10
2019-04-11T19:55:36.173Z,66.00
2019-04-11T19:58:05.469Z,65.80
2019-04-11T20:00:35.738Z,65.20
2019-04-11T20:03:05.047Z,65.20
2019-04-11T20:05:34.386Z,64.70
2019-04-11T20:08:03.916Z,64.40
2019-04-11T20:10:33.213Z,64.80
2019-04-11T20:13:04.047Z,64.00
2019-04-11T20:15:37.292Z,64.50
2019-04-11T20:18:04.359Z,64.50
2019-04-11T20:20:36.849Z,63.50
2019-04-11T20:23:04.828Z,62.20
2019-04-11T20:25:34.274Z,62.60
2019-04-11T20:28:03.594Z,61.30
2019-04-11T20:30:32.883Z,61.60
2019-04-11T20:33:03.204Z,61.90
2019-04-11T20:35:33.113Z,61.70
2019-04-11T20:38:02.404Z,62.10
2019-04-11T20:40:31.798Z,62.30
2019-04-11T20:43:01.093Z,62.60
2019-04-11T20:45:32.033Z,62.90
2019-04-11T20:48:02.255Z,63.40
2019-04-11T20:50:31.566Z,62.90
2019-04-11T20:53:12.072Z,62.70
2019-04-11T20:55:31.878Z,62.50
2019-04-11T20:58:01.179Z,62.40
2019-04-11T21:00:31.550Z,62.10
2019-04-11T21:03:00.865Z,62.60
2019-04-11T21:05:30.964Z,62.60
2019-04-11T21:08:02.974Z,63.40
2019-04-11T21:10:33.932Z,62.80
2019-04-11T21:13:06.922Z,62.80
2019-04-11T21:15:36.186Z,62.00
2019-04-11T21:18:05.486Z,62.20
2019-04-11T21:20:47.468Z,62.10
2019-04-11T21:23:24.305Z,62.90
2019-04-11T21:25:48.469Z,62.80
2019-04-11T21:28:17.773Z,62.90
2019-04-11T21:30:47.086Z,62.90
2019-04-11T21:33:16.446Z,62.70
2019-04-11T21:35:45.745Z,63.10
2019-04-11T21:38:15.066Z,62.70
2019-04-11T21:40:44.365Z,62.80
2019-04-11T21:43:13.670Z,62.90
2019-04-11T21:45:42.967Z,62.90
2019-04-11T21:48:12.266Z,61.90
2019-04-11T21:50:41.581Z,62.30
2019-04-11T21:53:22.697Z,62.40
2019-04-11T21:55:52.013Z,62.10
2019-04-11T21:58:21.313Z,62.20
2019-04-11T22:00:55.047Z,62.60
2019-04-11T22:03:24.840Z,62.50
2019-04-11T22:05:54.212Z,62.20
2019-04-11T22:08:23.514Z,61.90
2019-04-11T22:10:52.882Z,63.10
2019-04-11T22:13:22.185Z,62.10
2019-04-11T22:15:52.474Z,61.90
2019-04-11T22:18:23.405Z,62.90
2019-04-11T22:20:52.705Z,63.40
2019-04-11T22:23:22.009Z,62.30
2019-04-11T22:25:51.317Z,62.40
2019-04-11T22:28:22.042Z,62.80
2019-04-11T22:30:54.855Z,62.90
2019-04-11T22:33:27.578Z,63.20
2019-04-11T22:35:59.322Z,62.80
2019-04-11T22:38:31.058Z,63.60
2019-04-11T22:41:02.033Z,64.10
2019-04-11T22:43:31.314Z,64.50
2019-04-11T22:46:00.621Z,63.60
2019-04-11T22:48:29.925Z,63.90
2019-04-11T22:50:59.224Z,62.50
2019-04-11T22:53:28.653Z,62.80
2019-04-11T22:55:57.958Z,64.20
2019-04-11T22:58:27.261Z,64.60
2019-04-11T23:00:56.557Z,64.10
2019-04-11T23:03:27.517Z,64.90
2019-04-11T23:05:56.817Z,64.50
2019-04-11T23:08:26.116Z,65.60
2019-04-11T23:10:55.417Z,65.90
2019-04-11T23:13:24.928Z,65.50
2019-04-11T23:15:54.644Z,64.30
2019-04-11T23:18:23.937Z,64.20
2019-04-11T23:20:53.257Z,64.50
2019-04-11T23:23:22.582Z,65.60
2019-04-11T23:25:51.955Z,66.30
2019-04-11T23:28:22.430Z,66.70
2019-04-11T23:30:51.734Z,66.90
2019-04-11T23:33:21.532Z,64.70
2019-04-11T23:35:51.763Z,62.70
2019-04-11T23:38:23.564Z,62.30
2019-04-11T23:40:52.209Z,63.80
2019-04-11T23:43:21.514Z,64.80
2019-04-11T23:45:51.813Z,66.40
2019-04-11T23:48:23.761Z,65.00
2019-04-11T23:50:54.781Z,65.20
2019-04-11T23:53:23.269Z,65.70
2019-04-11T23:55:52.570Z,65.80
2019-04-11T23:58:21.869Z,65.60
